Time;durP1;ratioP1;P1;durP2;ratioP2;P2;SDS_P1;SDS_P2;PMS_P1;PMS_P2;Temp;Humidity;BMP_temperature;BMP_pressure;BME280_temperature;BME280_humidity;BME280_pressure;Samples;Min_cycle;Max_cycle;Signal;HPM_P1;HPM_P2
2021/04/19 00:00:35;;;;;;;;;;;23.00;49.90;;;;;;1570517;74;1122;-63
2021/04/19 00:02:38;;;;;;;;;;;23.00;49.90;;;;;;1564850;74;707;-63
2021/04/19 00:04:40;;;;;;;;;;;23.00;49.90;;;;;;1564365;74;744;-63
2021/04/19 00:06:41;;;;;;;;;;;23.10;50.00;;;;;;1563606;74;758;-64
2021/04/19 00:08:43;;;;;;;;;;;23.00;49.80;;;;;;1562974;74;1930;-63
2021/04/19 00:10:45;;;;;;;;;;;23.00;50.00;;;;;;1562732;74;1159;-64
2021/04/19 00:12:47;;;;;;;;;;;23.00;50.10;;;;;;1557809;74;798;-63
2021/04/19 00:14:49;;;;;;;;;;;23.00;50.00;;;;;;1566208;74;717;-64
2021/04/19 00:16:51;;;;;;;;;;;23.10;50.00;;;;;;1569590;74;790;-63
2021/04/19 00:18:53;;;;;;;;;;;23.10;49.70;;;;;;1563312;74;881;-63
2021/04/19 00:20:54;;;;;;;;;;;23.10;49.80;;;;;;1563870;74;1157;-64
2021/04/19 00:22:57;;;;;;;;;;;23.10;49.70;;;;;;1575501;74;804;-63
2021/04/19 00:24:59;;;;;;;;;;;23.10;49.50;;;;;;1560346;74;734;-62
2021/04/19 00:27:00;;;;;;;;;;;23.10;49.60;;;;;;1573335;74;746;-64
2021/04/19 00:29:02;;;;;;;;;;;23.10;49.60;;;;;;1565526;74;1955;-64
2021/04/19 00:31:04;;;;;;;;;;;23.10;49.50;;;;;;1563590;74;1146;-65
2021/04/19 00:33:06;;;;;;;;;;;23.10;49.40;;;;;;1562414;74;773;-63
2021/04/19 00:35:08;;;;;;;;;;;23.10;49.50;;;;;;1560347;74;753;-62
2021/04/19 00:37:10;;;;;;;;;;;23.00;49.60;;;;;;1565038;74;688;-63
2021/04/19 00:39:12;;;;;;;;;;;23.10;49.80;;;;;;1557582;74;755;-63
2021/04/19 00:41:14;;;;;;;;;;;23.10;49.90;;;;;;1567115;74;1201;-63
2021/04/19 00:43:16;;;;;;;;;;;23.10;49.80;;;;;;1569276;74;790;-61
2021/04/19 00:45:18;;;;;;;;;;;23.10;49.60;;;;;;1569169;74;747;-64
2021/04/19 00:47:20;;;;;;;;;;;23.10;49.50;;;;;;1578816;74;1948;-63
2021/04/19 00:49:23;;;;;;;;;;;23.20;49.50;;;;;;1581078;74;798;-65
2021/04/19 00:51:25;;;;;;;;;;;23.10;49.40;;;;;;1577332;74;2013;-63
2021/04/19 00:53:27;;;;;;;;;;;23.10;49.40;;;;;;1576406;74;789;-63
2021/04/19 00:55:29;;;;;;;;;;;23.10;49.20;;;;;;1567199;74;774;-63
2021/04/19 00:57:31;;;;;;;;;;;23.10;49.10;;;;;;1581303;74;791;-64
2021/04/19 00:59:33;;;;;;;;;;;23.10;49.10;;;;;;1577934;74;726;-64
2021/04/19 01:01:34;;;;;;;;;;;23.10;49.10;;;;;;1573903;74;1207;-64
2021/04/19 01:03:36;;;;;;;;;;;23.20;49.00;;;;;;1582598;74;798;-64
2021/04/19 01:05:39;;;;;;;;;;;23.20;49.10;;;;;;1577075;74;736;-65
2021/04/19 01:07:41;;;;;;;;;;;23.20;49.00;;;;;;1569352;74;1938;-64
2021/04/19 01:09:43;;;;;;;;;;;23.10;48.90;;;;;;1558041;74;759;-64
2021/04/19 01:11:45;;;;;;;;;;;23.20;48.90;;;;;;1561502;74;1150;-64
2021/04/19 01:13:47;;;;;;;;;;;23.20;48.80;;;;;;1557514;74;776;-63
2021/04/19 01:15:48;;;;;;;;;;;23.20;48.90;;;;;;1580054;74;777;-63
2021/04/19 01:17:50;;;;;;;;;;;23.10;48.90;;;;;;1573663;74;799;-64
2021/04/19 01:19:52;;;;;;;;;;;23.20;48.90;;;;;;1568004;74;791;-64
2021/04/19 01:21:54;;;;;;;;;;;23.10;48.80;;;;;;1575918;74;1156;-63
2021/04/19 01:23:56;;;;;;;;;;;23.10;48.90;;;;;;1582730;74;800;-66
2021/04/19 01:25:58;;;;;;;;;;;23.10;48.90;;;;;;1570070;74;731;-65
2021/04/19 01:28:00;;;;;;;;;;;23.10;48.90;;;;;;1580632;74;1939;-65
2021/04/19 01:30:03;;;;;;;;;;;23.10;49.00;;;;;;1563753;74;794;-64
2021/04/19 01:32:05;;;;;;;;;;;23.10;48.90;;;;;;1575833;74;1101;-64
2021/04/19 01:34:07;;;;;;;;;;;23.10;48.90;;;;;;1590092;74;859;-64
2021/04/19 01:36:09;;;;;;;;;;;23.10;48.70;;;;;;1571659;74;716;-63
2021/04/19 01:38:11;;;;;;;;;;;23.10;48.70;;;;;;1563678;74;917;-63
2021/04/19 01:40:14;;;;;;;;;;;23.20;48.60;;;;;;1582684;74;718;-63
2021/04/19 01:42:16;;;;;;;;;;;23.20;48.70;;;;;;1576032;74;1134;-62
2021/04/19 01:44:18;;;;;;;;;;;23.10;48.80;;;;;;1576289;74;792;-63
2021/04/19 01:46:20;;;;;;;;;;;23.10;48.80;;;;;;1572027;74;740;-64
2021/04/19 01:48:22;;;;;;;;;;;23.10;48.90;;;;;;1588428;74;1938;-64
2021/04/19 01:50:25;;;;;;;;;;;23.10;48.90;;;;;;1573496;74;745;-63
2021/04/19 01:52:27;;;;;;;;;;;23.10;49.10;;;;;;1570762;74;1135;-64
2021/04/19 01:54:29;;;;;;;;;;;23.00;49.10;;;;;;1567000;74;737;-63
2021/04/19 01:56:31;;;;;;;;;;;23.00;49.20;;;;;;1580375;74;935;-63
2021/04/19 01:58:33;;;;;;;;;;;23.00;49.30;;;;;;1581464;74;813;-63
2021/04/19 02:00:36;;;;;;;;;;;23.00;49.40;;;;;;1574443;74;1148;-63
2021/04/19 02:02:58;;;;;;;;;;;23.10;49.50;;;;;;1567227;74;875;-65
2021/04/19 02:05:04;;;;;;;;;;;23.10;49.40;;;;;;1572825;74;1961;-64
2021/04/19 02:07:17;;;;;;;;;;;23.10;49.40;;;;;;1576530;74;1660;-64
2021/04/19 02:09:20;;;;;;;;;;;23.10;49.40;;;;;;1575246;74;1942;-64
2021/04/19 02:11:27;;;;;;;;;;;23.10;49.20;;;;;;1573838;74;1145;-63
2021/04/19 02:13:39;;;;;;;;;;;23.10;49.10;;;;;;1574932;74;1993;-65
2021/04/19 02:15:42;;;;;;;;;;;23.10;48.90;;;;;;1574978;74;773;-64
2021/04/19 02:17:46;;;;;;;;;;;23.20;48.80;;;;;;1567585;74;798;-63
2021/04/19 02:19:55;;;;;;;;;;;23.10;48.80;;;;;;1571889;74;2046;-63
2021/04/19 02:22:11;;;;;;;;;;;23.20;48.70;;;;;;1576071;74;1923;-63
2021/04/19 02:24:15;;;;;;;;;;;23.10;48.60;;;;;;1554234;74;835;-64
2021/04/19 02:26:18;;;;;;;;;;;23.10;48.60;;;;;;1569356;74;1203;-63
2021/04/19 02:28:22;;;;;;;;;;;23.10;48.60;;;;;;1582521;74;1945;-64
2021/04/19 02:30:24;;;;;;;;;;;23.20;48.70;;;;;;1577054;74;1942;-64
2021/04/19 02:32:28;;;;;;;;;;;23.10;48.70;;;;;;1579695;74;1163;-64
2021/04/19 02:34:31;;;;;;;;;;;23.10;48.90;;;;;;1572424;74;1875;-64
2021/04/19 02:36:33;;;;;;;;;;;23.10;48.90;;;;;;1572203;74;728;-64
2021/04/19 02:38:35;;;;;;;;;;;23.10;48.90;;;;;;1571927;74;723;-63
2021/04/19 02:40:37;;;;;;;;;;;23.20;48.90;;;;;;1574137;74;1158;-64
2021/04/19 02:42:39;;;;;;;;;;;23.20;48.80;;;;;;1573008;74;766;-64
2021/04/19 02:44:41;;;;;;;;;;;23.10;48.90;;;;;;1560984;74;819;-64
2021/04/19 02:46:43;;;;;;;;;;;23.10;48.90;;;;;;1567166;74;790;-63
2021/04/19 02:48:45;;;;;;;;;;;23.10;49.00;;;;;;1571939;74;1935;-63
2021/04/19 02:50:47;;;;;;;;;;;23.10;49.10;;;;;;1574095;74;1197;-63
2021/04/19 02:52:49;;;;;;;;;;;23.00;49.20;;;;;;1567834;74;712;-65
2021/04/19 02:54:51;;;;;;;;;;;23.10;49.60;;;;;;1556666;74;767;-64
2021/04/19 02:56:53;;;;;;;;;;;23.00;49.60;;;;;;1564601;74;735;-63
2021/04/19 02:58:59;;;;;;;;;;;22.90;49.50;;;;;;1572701;74;767;-64
2021/04/19 03:01:01;;;;;;;;;;;22.90;49.50;;;;;;1579521;74;1171;-66
2021/04/19 03:03:08;;;;;;;;;;;22.90;49.80;;;;;;1560608;74;670;-65
2021/04/19 03:05:10;;;;;;;;;;;22.90;49.80;;;;;;1567434;74;1759;-65
2021/04/19 03:07:12;;;;;;;;;;;22.90;49.90;;;;;;1559380;74;1223;-65
2021/04/19 03:09:15;;;;;;;;;;;22.80;49.90;;;;;;1573170;74;1933;-65
2021/04/19 03:11:21;;;;;;;;;;;22.80;49.90;;;;;;1560185;74;1127;-65
2021/04/19 03:13:23;;;;;;;;;;;22.70;50.00;;;;;;1576340;74;715;-64
2021/04/19 03:15:26;;;;;;;;;;;22.70;50.20;;;;;;1563424;74;801;-64
2021/04/19 03:17:28;;;;;;;;;;;22.70;50.20;;;;;;1570229;74;740;-65
2021/04/19 03:19:30;;;;;;;;;;;22.60;50.20;;;;;;1567917;74;747;-64
2021/04/19 03:21:34;;;;;;;;;;;22.60;50.00;;;;;;1566636;74;1145;-64
2021/04/19 03:23:37;;;;;;;;;;;22.70;50.20;;;;;;1560812;74;779;-63
2021/04/19 03:25:39;;;;;;;;;;;22.60;50.30;;;;;;1571092;74;760;-64
2021/04/19 03:27:41;;;;;;;;;;;22.60;50.50;;;;;;1569023;74;785;-66
2021/04/19 03:29:43;;;;;;;;;;;22.60;50.40;;;;;;1567620;74;1943;-64
2021/04/19 03:31:47;;;;;;;;;;;22.60;50.30;;;;;;1565790;74;1171;-65
2021/04/19 03:33:49;;;;;;;;;;;22.60;50.20;;;;;;1563107;74;1775;-64
2021/04/19 03:35:50;;;;;;;;;;;22.60;50.20;;;;;;1564308;74;889;-65
2021/04/19 03:37:52;;;;;;;;;;;22.60;50.20;;;;;;1562879;74;865;-65
2021/04/19 03:39:56;;;;;;;;;;;22.70;50.30;;;;;;1569114;74;839;-65
2021/04/19 03:41:58;;;;;;;;;;;22.60;50.10;;;;;;1572842;74;1092;-64
2021/04/19 03:44:00;;;;;;;;;;;22.60;50.20;;;;;;1565217;74;789;-64
2021/04/19 03:46:06;;;;;;;;;;;22.60;50.30;;;;;;1567576;74;807;-65
2021/04/19 03:48:07;;;;;;;;;;;22.60;50.30;;;;;;1564957;74;1199;-64
2021/04/19 03:50:09;;;;;;;;;;;22.50;50.20;;;;;;1568237;74;1946;-63
2021/04/19 03:52:12;;;;;;;;;;;22.60;50.20;;;;;;1563426;74;1140;-65
2021/04/19 03:54:14;;;;;;;;;;;22.60;50.00;;;;;;1562365;74;877;-66
2021/04/19 03:56:16;;;;;;;;;;;22.60;50.00;;;;;;1566015;74;774;-64
2021/04/19 03:58:18;;;;;;;;;;;22.70;49.90;;;;;;1562060;74;770;-64
2021/04/19 04:00:20;;;;;;;;;;;22.70;49.80;;;;;;1561087;74;907;-65
2021/04/19 04:02:22;;;;;;;;;;;22.70;49.70;;;;;;1562482;74;1166;-65
2021/04/19 04:04:24;;;;;;;;;;;22.70;49.80;;;;;;1555618;74;753;-64
2021/04/19 04:06:26;;;;;;;;;;;22.60;49.80;;;;;;1564071;74;782;-64
2021/04/19 04:08:28;;;;;;;;;;;22.60;49.90;;;;;;1575867;74;1932;-64
2021/04/19 04:10:30;;;;;;;;;;;22.60;50.00;;;;;;1565209;74;687;-64
2021/04/19 04:12:34;;;;;;;;;;;22.60;50.00;;;;;;1561387;74;1162;-64
2021/04/19 04:14:36;;;;;;;;;;;22.60;50.00;;;;;;1563048;74;1661;-64
2021/04/19 04:16:44;;;;;;;;;;;22.60;49.90;;;;;;1563659;74;731;-66
2021/04/19 04:18:46;;;;;;;;;;;22.60;49.80;;;;;;1561288;74;720;-63
2021/04/19 04:21:07;;;;;;;;;;;22.70;49.80;;;;;;1562837;74;1147;-63
2021/04/19 04:23:09;;;;;;;;;;;22.70;49.70;;;;;;1624737;71;684;-58
2021/04/19 04:25:11;;;;;;;;;;;22.70;49.70;;;;;;1612900;71;600;-57
2021/04/19 04:27:13;;;;;;;;;;;22.70;49.60;;;;;;1613008;71;856;-58
2021/04/19 04:29:15;;;;;;;;;;;22.70;49.60;;;;;;1598518;71;1949;-57
2021/04/19 04:31:17;;;;;;;;;;;22.80;49.50;;;;;;1590484;73;798;-56
2021/04/19 04:33:19;;;;;;;;;;;22.80;49.40;;;;;;1588094;73;664;-59
2021/04/19 04:35:20;;;;;;;;;;;22.80;49.40;;;;;;1585302;73;698;-59
2021/04/19 04:37:22;;;;;;;;;;;22.80;49.40;;;;;;1586376;73;741;-60
2021/04/19 04:39:24;;;;;;;;;;;22.80;49.60;;;;;;1587939;73;1154;-58
2021/04/19 04:41:26;;;;;;;;;;;22.70;49.70;;;;;;1591187;73;723;-60
2021/04/19 04:43:28;;;;;;;;;;;22.60;49.90;;;;;;1590066;73;666;-58
2021/04/19 04:45:30;;;;;;;;;;;22.60;50.00;;;;;;1586076;73;778;-58
2021/04/19 04:47:37;;;;;;;;;;;22.60;50.10;;;;;;1589246;73;789;-57
2021/04/19 04:49:40;;;;;;;;;;;22.60;50.20;;;;;;1577133;73;1947;-59
2021/04/19 04:51:43;;;;;;;;;;;22.50;50.40;;;;;;1564878;73;1659;-58
2021/04/19 04:53:45;;;;;;;;;;;22.50;50.60;;;;;;1592517;73;792;-59
2021/04/19 04:55:48;;;;;;;;;;;22.50;50.70;;;;;;1595516;73;767;-57
2021/04/19 04:57:50;;;;;;;;;;;22.40;50.80;;;;;;1594402;73;751;-60
2021/04/19 04:59:52;;;;;;;;;;;22.40;50.60;;;;;;1603503;73;1129;-58
2021/04/19 05:01:54;;;;;;;;;;;22.40;50.60;;;;;;1592903;73;763;-60
2021/04/19 05:03:56;;;;;;;;;;;22.40;50.80;;;;;;1600830;73;784;-60
2021/04/19 05:05:58;;;;;;;;;;;22.50;50.80;;;;;;1598491;73;714;-60
2021/04/19 05:08:00;;;;;;;;;;;22.40;50.50;;;;;;1590930;73;780;-56
2021/04/19 05:10:03;;;;;;;;;;;22.40;50.60;;;;;;1594241;73;1957;-59
2021/04/19 05:12:06;;;;;;;;;;;22.40;50.60;;;;;;1585479;73;739;-57
2021/04/19 05:14:07;;;;;;;;;;;22.40;50.50;;;;;;1588807;73;716;-56
2021/04/19 05:16:09;;;;;;;;;;;22.50;50.70;;;;;;1598547;73;805;-58
2021/04/19 05:18:12;;;;;;;;;;;22.50;50.70;;;;;;1589565;73;741;-59
2021/04/19 05:20:14;;;;;;;;;;;22.50;50.70;;;;;;1604137;73;1122;-60
2021/04/19 05:22:16;;;;;;;;;;;22.50;50.70;;;;;;1601948;73;767;-57
2021/04/19 05:24:18;;;;;;;;;;;22.50;50.60;;;;;;1589392;73;711;-59
2021/04/19 05:26:20;;;;;;;;;;;22.50;50.50;;;;;;1586829;73;671;-58
2021/04/19 05:28:22;;;;;;;;;;;22.50;50.40;;;;;;1583009;73;741;-60
2021/04/19 05:30:24;;;;;;;;;;;22.50;50.20;;;;;;1585967;73;1958;-59
2021/04/19 05:32:29;;;;;;;;;;;22.50;50.20;;;;;;1582689;73;738;-59
2021/04/19 05:34:31;;;;;;;;;;;22.50;50.00;;;;;;1584846;73;902;-57
2021/04/19 05:36:33;;;;;;;;;;;22.40;49.90;;;;;;1584178;73;727;-57
2021/04/19 05:38:35;;;;;;;;;;;22.50;49.90;;;;;;1582002;73;770;-55
2021/04/19 05:40:37;;;;;;;;;;;22.40;49.80;;;;;;1593187;73;738;-59
2021/04/19 05:42:39;;;;;;;;;;;22.50;50.00;;;;;;1596630;73;721;-59
2021/04/19 05:44:41;;;;;;;;;;;22.50;50.10;;;;;;1586205;73;744;-60
2021/04/19 05:46:43;;;;;;;;;;;22.60;50.10;;;;;;1583015;73;800;-60
2021/04/19 05:48:45;;;;;;;;;;;22.50;49.80;;;;;;1584882;73;1138;-59
2021/04/19 05:50:48;;;;;;;;;;;22.60;49.80;;;;;;1585016;73;1942;-60
2021/04/19 05:52:51;;;;;;;;;;;22.60;49.70;;;;;;1584623;73;752;-60
2021/04/19 05:54:53;;;;;;;;;;;22.60;49.70;;;;;;1581304;73;1819;-60
2021/04/19 05:57:13;;;;;;;;;;;22.60;50.00;;;;;;1587663;73;736;-61
2021/04/19 05:59:18;;;;;;;;;;;22.60;49.90;;;;;;1601876;73;1146;-58
2021/04/19 06:01:20;;;;;;;;;;;22.60;50.30;;;;;;1580285;73;725;-59
2021/04/19 06:03:24;;;;;;;;;;;22.70;50.30;;;;;;1602332;73;809;-60
2021/04/19 06:05:30;;;;;;;;;;;22.70;50.20;;;;;;1598879;73;743;-59
2021/04/19 06:07:36;;;;;;;;;;;22.70;50.10;;;;;;1587073;73;758;-60
2021/04/19 06:09:40;;;;;;;;;;;22.70;50.10;;;;;;1585307;73;2050;-60
2021/04/19 06:11:45;;;;;;;;;;;22.70;49.90;;;;;;1568834;74;1669;-59
2021/04/19 06:13:47;;;;;;;;;;;22.70;49.70;;;;;;1586695;73;682;-60
2021/04/19 06:15:51;;;;;;;;;;;22.80;49.50;;;;;;1590360;73;683;-60
2021/04/19 06:17:53;;;;;;;;;;;22.90;49.20;;;;;;1600967;73;695;-60
2021/04/19 06:19:55;;;;;;;;;;;23.10;48.80;;;;;;1607744;73;1112;-60
2021/04/19 06:21:57;;;;;;;;;;;23.20;48.40;;;;;;1592936;73;642;-60
2021/04/19 06:24:00;;;;;;;;;;;23.30;48.10;;;;;;1604313;73;828;-59
2021/04/19 06:26:02;;;;;;;;;;;23.50;47.80;;;;;;1584160;73;699;-54
2021/04/19 06:28:05;;;;;;;;;;;23.60;47.40;;;;;;1581127;73;732;-57
2021/04/19 06:30:14;;;;;;;;;;;23.60;47.10;;;;;;1600714;73;1936;-59
2021/04/19 06:32:17;;;;;;;;;;;23.60;46.90;;;;;;1592840;73;749;-56
2021/04/19 06:34:19;;;;;;;;;;;23.70;46.60;;;;;;1586711;73;830;-55
2021/04/19 06:36:20;;;;;;;;;;;23.70;46.50;;;;;;1583360;73;704;-55
2021/04/19 06:38:22;;;;;;;;;;;23.70;46.30;;;;;;1597116;73;777;-58
2021/04/19 06:40:25;;;;;;;;;;;23.70;46.30;;;;;;1595911;73;1092;-58
2021/04/19 06:42:27;;;;;;;;;;;23.80;46.00;;;;;;1593673;73;873;-59
2021/04/19 06:44:30;;;;;;;;;;;23.80;45.80;;;;;;1601301;73;718;-57
2021/04/19 06:46:33;;;;;;;;;;;23.80;45.90;;;;;;1586166;73;896;-60
2021/04/19 06:48:35;;;;;;;;;;;23.80;45.90;;;;;;1594091;73;1893;-56
2021/04/19 06:50:37;;;;;;;;;;;23.90;45.90;;;;;;1591672;73;1939;-58
2021/04/19 06:52:46;;;;;;;;;;;23.90;45.90;;;;;;1596026;73;911;-58
2021/04/19 06:54:43;;;;;;;;;;;24.00;46.00;;;;;;1590025;73;1774;-57
2021/04/19 06:56:45;;;;;;;;;;;23.90;46.00;;;;;;1587126;73;734;-59
2021/04/19 06:58:47;;;;;;;;;;;24.00;46.00;;;;;;1600094;73;1133;-61
2021/04/19 07:00:49;;;;;;;;;;;24.00;46.30;;;;;;1594189;73;792;-59
2021/04/19 07:02:51;;;;;;;;;;;24.00;47.50;;;;;;1606125;73;830;-57
2021/04/19 07:04:53;;;;;;;;;;;24.00;48.20;;;;;;1599500;73;807;-59
2021/04/19 07:06:55;;;;;;;;;;;24.00;48.50;;;;;;1579099;73;750;-58
2021/04/19 07:09:02;;;;;;;;;;;24.00;48.90;;;;;;1584324;73;1170;-58
2021/04/19 07:11:04;;;;;;;;;;;24.10;49.20;;;;;;1579758;73;1994;-58
2021/04/19 07:13:07;;;;;;;;;;;24.20;49.20;;;;;;1586236;73;897;-59
2021/04/19 07:15:09;;;;;;;;;;;24.20;49.20;;;;;;1586408;73;690;-58
2021/04/19 07:17:11;;;;;;;;;;;24.10;49.00;;;;;;1586166;73;684;-57
2021/04/19 07:19:13;;;;;;;;;;;24.20;48.90;;;;;;1588321;73;1114;-56
2021/04/19 07:21:15;;;;;;;;;;;24.20;48.90;;;;;;1583152;73;777;-55
2021/04/19 07:23:17;;;;;;;;;;;24.20;48.90;;;;;;1582135;73;782;-58
2021/04/19 07:25:19;;;;;;;;;;;24.20;48.50;;;;;;1577116;73;771;-58
2021/04/19 07:27:21;;;;;;;;;;;24.20;48.50;;;;;;1600826;73;755;-58
2021/04/19 07:29:22;;;;;;;;;;;24.30;48.40;;;;;;1596887;73;1123;-58
2021/04/19 07:31:24;;;;;;;;;;;24.20;48.20;;;;;;1586065;73;1949;-58
2021/04/19 07:33:26;;;;;;;;;;;24.30;48.10;;;;;;1587096;73;734;-57
2021/04/19 07:35:30;;;;;;;;;;;24.30;48.10;;;;;;1588356;73;785;-57
2021/04/19 07:37:32;;;;;;;;;;;24.20;47.80;;;;;;1581259;73;1898;-59
2021/04/19 07:39:34;;;;;;;;;;;24.30;47.90;;;;;;1584767;73;1132;-56
2021/04/19 07:41:46;;;;;;;;;;;24.30;47.80;;;;;;1578609;73;769;-55
2021/04/19 07:43:48;;;;;;;;;;;24.30;47.70;;;;;;1585734;73;730;-58
2021/04/19 07:46:07;;;;;;;;;;;24.30;47.60;;;;;;1588531;73;1038;-57
2021/04/19 07:48:09;;;;;;;;;;;24.30;47.50;;;;;;1580656;73;1491;-57
2021/04/19 07:50:20;;;;;;;;;;;24.30;47.50;;;;;;1593405;71;1942;-58
2021/04/19 07:52:22;;;;;;;;;;;24.20;47.40;;;;;;1589695;73;771;-59
2021/04/19 07:54:24;;;;;;;;;;;24.20;47.40;;;;;;1582949;73;667;-56
2021/04/19 07:56:26;;;;;;;;;;;24.10;47.50;;;;;;1599882;73;860;-60
2021/04/19 07:58:29;;;;;;;;;;;24.10;47.50;;;;;;1589994;73;787;-57
2021/04/19 08:00:32;;;;;;;;;;;24.10;47.40;;;;;;1590864;73;1108;-59
2021/04/19 08:02:34;;;;;;;;;;;24.00;47.40;;;;;;1584589;73;904;-56
2021/04/19 08:04:37;;;;;;;;;;;24.10;47.60;;;;;;1589808;73;744;-58
2021/04/19 08:06:39;;;;;;;;;;;24.00;47.40;;;;;;1584941;73;1957;-58
2021/04/19 08:08:41;;;;;;;;;;;24.00;47.50;;;;;;1598847;73;1160;-58
2021/04/19 08:10:44;;;;;;;;;;;23.90;47.60;;;;;;1597507;73;2098;-58
2021/04/19 08:12:46;;;;;;;;;;;23.90;47.50;;;;;;1587220;73;781;-58
2021/04/19 08:14:51;;;;;;;;;;;23.90;47.60;;;;;;1599949;73;816;-58
2021/04/19 08:17:10;;;;;;;;;;;23.90;47.70;;;;;;1594358;73;838;-58
2021/04/19 08:19:11;;;;;;;;;;;24.00;47.60;;;;;;1573960;73;1175;-58
2021/04/19 08:21:13;;;;;;;;;;;23.90;47.70;;;;;;1582513;73;809;-59
2021/04/19 08:23:15;;;;;;;;;;;23.90;47.60;;;;;;1592778;73;700;-56
2021/04/19 08:25:21;;;;;;;;;;;23.90;47.60;;;;;;1590699;73;857;-56
2021/04/19 08:27:24;;;;;;;;;;;24.00;47.60;;;;;;1588838;73;758;-58
2021/04/19 08:29:36;;;;;;;;;;;24.00;47.50;;;;;;1589780;73;1147;-58
2021/04/19 08:31:38;;;;;;;;;;;24.10;47.60;;;;;;1565521;73;1948;-58
2021/04/19 08:33:42;;;;;;;;;;;24.00;47.30;;;;;;1590024;73;767;-58
2021/04/19 08:35:44;;;;;;;;;;;24.00;47.30;;;;;;1591266;73;727;-58
2021/04/19 08:37:46;;;;;;;;;;;24.00;47.30;;;;;;1580157;73;848;-58
2021/04/19 08:39:48;;;;;;;;;;;24.00;47.20;;;;;;1588007;73;1132;-55
2021/04/19 08:41:50;;;;;;;;;;;23.90;47.20;;;;;;1579970;73;797;-58
2021/04/19 08:43:52;;;;;;;;;;;23.90;47.20;;;;;;1579535;73;765;-58
2021/04/19 08:45:55;;;;;;;;;;;23.90;47.10;;;;;;1588608;73;781;-58
2021/04/19 08:47:57;;;;;;;;;;;23.90;47.30;;;;;;1593281;73;903;-58
2021/04/19 08:49:59;;;;;;;;;;;23.90;47.30;;;;;;1593306;73;1131;-58
2021/04/19 08:52:01;;;;;;;;;;;23.80;47.10;;;;;;1580975;73;1924;-58
2021/04/19 08:54:03;;;;;;;;;;;23.80;47.30;;;;;;1594457;73;743;-58
2021/04/19 08:56:06;;;;;;;;;;;23.80;47.20;;;;;;1589450;73;810;-58
2021/04/19 08:58:12;;;;;;;;;;;23.70;47.10;;;;;;1603697;73;781;-56
2021/04/19 09:00:12;;;;;;;;;;;23.70;47.20;;;;;;1585971;73;1545;-58
2021/04/19 09:02:16;;;;;;;;;;;23.60;47.10;;;;;;1599499;73;762;-58
2021/04/19 09:04:19;;;;;;;;;;;23.60;47.00;;;;;;1595102;73;1003;-57
2021/04/19 09:06:23;;;;;;;;;;;23.60;47.00;;;;;;1589896;73;1795;-56
2021/04/19 09:08:25;;;;;;;;;;;23.60;47.00;;;;;;1585064;73;1874;-58
2021/04/19 09:10:26;;;;;;;;;;;23.60;47.00;;;;;;1552387;74;1940;-58
2021/04/19 09:12:29;;;;;;;;;;;23.60;46.80;;;;;;1578440;73;843;-58
2021/04/19 09:14:34;;;;;;;;;;;23.60;47.00;;;;;;1588441;73;746;-58
2021/04/19 09:16:38;;;;;;;;;;;23.50;46.90;;;;;;1588475;73;786;-56
2021/04/19 09:18:40;;;;;;;;;;;23.50;46.80;;;;;;1593382;73;2323;-58
2021/04/19 09:20:46;;;;;;;;;;;23.50;46.90;;;;;;1582153;73;704;-58
2021/04/19 09:22:48;;;;;;;;;;;23.40;46.80;;;;;;1585274;73;767;-59
2021/04/19 09:24:51;;;;;;;;;;;23.40;46.90;;;;;;1589323;73;885;-59
2021/04/19 09:26:54;;;;;;;;;;;23.50;47.00;;;;;;1582200;73;1173;-58
2021/04/19 09:28:56;;;;;;;;;;;23.40;46.90;;;;;;1601702;73;1131;-58
2021/04/19 09:30:57;;;;;;;;;;;23.40;47.10;;;;;;1590568;73;1912;-58
2021/04/19 09:33:07;;;;;;;;;;;23.40;47.10;;;;;;1580220;73;827;-58
2021/04/19 09:35:09;;;;;;;;;;;23.40;47.00;;;;;;1582948;73;788;-56
2021/04/19 09:37:14;;;;;;;;;;;23.30;47.10;;;;;;1577356;73;796;-57
2021/04/19 09:39:18;;;;;;;;;;;23.30;47.30;;;;;;1580576;73;1140;-56
2021/04/19 09:41:21;;;;;;;;;;;23.30;47.30;;;;;;1585793;73;1251;-58
2021/04/19 09:43:38;;;;;;;;;;;23.30;47.30;;;;;;1591466;73;702;-57
2021/04/19 09:45:48;;;;;;;;;;;23.30;47.20;;;;;;1575735;73;728;-58
2021/04/19 09:47:50;;;;;;;;;;;23.20;47.20;;;;;;1590234;73;795;-58
2021/04/19 09:49:52;;;;;;;;;;;23.20;47.30;;;;;;1590351;73;1098;-58
2021/04/19 09:51:55;;;;;;;;;;;23.30;47.30;;;;;;1578516;73;1936;-55
2021/04/19 09:54:08;;;;;;;;;;;23.20;47.40;;;;;;1584636;73;899;-59
2021/04/19 09:56:10;;;;;;;;;;;23.20;47.60;;;;;;1597654;73;924;-58
2021/04/19 09:58:12;;;;;;;;;;;23.10;46.70;;;;;;1584479;73;643;-59
2021/04/19 10:00:14;;;;;;;;;;;23.00;44.30;;;;;;1601692;73;1095;-58
2021/04/19 10:02:16;;;;;;;;;;;22.90;44.20;;;;;;1588504;73;717;-59
2021/04/19 10:04:18;;;;;;;;;;;22.90;43.90;;;;;;1577198;73;774;-58
2021/04/19 10:06:21;;;;;;;;;;;22.80;43.40;;;;;;1581406;73;746;-59
2021/04/19 10:08:23;;;;;;;;;;;22.80;43.10;;;;;;1572892;73;1114;-59
2021/04/19 10:10:25;;;;;;;;;;;22.60;42.80;;;;;;1581436;73;1135;-56
2021/04/19 10:12:28;;;;;;;;;;;22.60;42.50;;;;;;1580156;73;1949;-60
2021/04/19 10:14:35;;;;;;;;;;;22.50;42.30;;;;;;1577512;73;836;-59
2021/04/19 10:16:41;;;;;;;;;;;22.50;42.10;;;;;;1587702;73;1811;-59
2021/04/19 10:18:43;;;;;;;;;;;22.40;41.90;;;;;;1583850;73;1111;-59
2021/04/19 10:20:45;;;;;;;;;;;22.40;41.90;;;;;;1604086;73;794;-59
2021/04/19 10:22:47;;;;;;;;;;;22.40;41.70;;;;;;1571292;73;3109;-56
2021/04/19 10:24:50;;;;;;;;;;;22.40;41.60;;;;;;1553760;75;1002;-60
2021/04/19 10:26:52;;;;;;;;;;;22.40;41.50;;;;;;1569150;74;779;-58
2021/04/19 10:28:55;;;;;;;;;;;22.40;41.50;;;;;;1544485;75;1193;-57
2021/04/19 10:31:08;;;;;;;;;;;22.30;41.40;;;;;;1517805;76;1912;-59
2021/04/19 10:33:10;;;;;;;;;;;22.30;41.30;;;;;;1514069;76;766;-59
2021/04/19 10:35:30;;;;;;;;;;;22.40;41.40;;;;;;1519453;76;761;-59
2021/04/19 10:37:32;;;;;;;;;;;22.30;41.60;;;;;;1523036;76;781;-57
2021/04/19 10:39:35;;;;;;;;;;;22.40;41.60;;;;;;1533682;76;1146;-58
2021/04/19 10:41:37;;;;;;;;;;;22.30;41.70;;;;;;1536689;76;760;-55
2021/04/19 10:43:39;;;;;;;;;;;22.40;41.70;;;;;;1530088;76;728;-59
2021/04/19 10:45:41;;;;;;;;;;;22.30;41.30;;;;;;1539248;76;771;-58
2021/04/19 10:47:43;;;;;;;;;;;22.30;41.00;;;;;;1530299;76;766;-59
2021/04/19 10:49:45;;;;;;;;;;;22.30;40.80;;;;;;1537981;76;1137;-60
2021/04/19 10:51:48;;;;;;;;;;;22.30;40.90;;;;;;1523361;76;1925;-58
2021/04/19 10:53:50;;;;;;;;;;;22.30;41.00;;;;;;1536039;76;1932;-60
2021/04/19 10:55:59;;;;;;;;;;;22.30;40.90;;;;;;1539536;76;718;-59
2021/04/19 10:58:00;;;;;;;;;;;22.30;40.80;;;;;;1542654;76;760;-60
2021/04/19 11:00:04;;;;;;;;;;;22.20;40.80;;;;;;1538498;76;1075;-58
2021/04/19 11:02:07;;;;;;;;;;;22.20;40.70;;;;;;1537502;76;698;-59
2021/04/19 11:04:10;;;;;;;;;;;22.20;40.90;;;;;;1528158;76;724;-58
2021/04/19 11:06:11;;;;;;;;;;;22.20;40.60;;;;;;1524592;76;705;-58
2021/04/19 11:08:13;;;;;;;;;;;22.20;41.60;;;;;;1541746;76;800;-58
2021/04/19 11:10:25;;;;;;;;;;;22.10;41.60;;;;;;1540121;75;1191;-56
2021/04/19 11:12:27;;;;;;;;;;;22.00;41.10;;;;;;1537261;76;1920;-56
2021/04/19 11:14:35;;;;;;;;;;;22.10;41.30;;;;;;1531877;76;765;-55
2021/04/19 11:16:37;;;;;;;;;;;22.00;40.60;;;;;;1530714;76;728;-58
2021/04/19 11:18:41;;;;;;;;;;;22.00;40.30;;;;;;1534294;76;1140;-56
2021/04/19 11:20:42;;;;;;;;;;;22.00;40.10;;;;;;1528665;76;818;-59
2021/04/19 11:22:44;;;;;;;;;;;22.00;40.10;;;;;;1548788;76;779;-59
2021/04/19 11:24:46;;;;;;;;;;;21.90;41.10;;;;;;1546613;75;1051;-60
2021/04/19 11:26:48;;;;;;;;;;;22.00;40.50;;;;;;1544342;76;786;-59
2021/04/19 11:28:50;;;;;;;;;;;21.90;40.20;;;;;;1533433;75;1157;-60
2021/04/19 11:30:55;;;;;;;;;;;21.90;40.20;;;;;;1538415;75;733;-58
2021/04/19 11:33:02;;;;;;;;;;;21.80;40.30;;;;;;1548500;75;1955;-60
2021/04/19 11:35:04;;;;;;;;;;;21.90;40.20;;;;;;1539437;75;1130;-60
2021/04/19 11:37:06;;;;;;;;;;;21.90;40.20;;;;;;1525628;76;728;-58
2021/04/19 11:39:18;;;;;;;;;;;21.90;40.00;;;;;;1534232;76;1302;-56
2021/04/19 11:41:20;;;;;;;;;;;21.80;40.70;;;;;;1525730;75;729;-59
2021/04/19 11:43:29;;;;;;;;;;;21.80;41.60;;;;;;1526644;75;725;-57
2021/04/19 11:45:31;;;;;;;;;;;21.80;41.80;;;;;;1538620;76;1510;-58
2021/04/19 11:47:34;;;;;;;;;;;21.80;41.80;;;;;;1537271;75;735;-58
2021/04/19 11:49:35;;;;;;;;;;;21.80;41.30;;;;;;1532565;76;1162;-58
2021/04/19 11:51:37;;;;;;;;;;;21.80;41.10;;;;;;1538369;75;1936;-58
2021/04/19 11:53:40;;;;;;;;;;;21.90;41.20;;;;;;1541872;75;766;-57
2021/04/19 11:55:41;;;;;;;;;;;21.90;41.80;;;;;;1538460;75;710;-58
2021/04/19 11:57:44;;;;;;;;;;;21.90;41.50;;;;;;1538107;75;724;-56
2021/04/19 11:59:46;;;;;;;;;;;21.80;42.40;;;;;;1531081;76;1153;-56
2021/04/19 12:01:48;;;;;;;;;;;21.80;42.40;;;;;;1525947;75;691;-58
2021/04/19 12:03:51;;;;;;;;;;;21.90;41.60;;;;;;1522820;76;716;-59
2021/04/19 12:05:54;;;;;;;;;;;21.90;42.50;;;;;;1526464;76;800;-58
2021/04/19 12:07:56;;;;;;;;;;;21.90;41.00;;;;;;1532984;75;833;-59
2021/04/19 12:09:58;;;;;;;;;;;21.90;42.50;;;;;;1522217;75;1137;-58
2021/04/19 12:12:00;;;;;;;;;;;21.90;43.60;;;;;;1527941;76;1934;-58
2021/04/19 12:14:02;;;;;;;;;;;22.00;43.30;;;;;;1532514;76;762;-59